sensor_id;sensor_type;location;lat;lon;timestamp;P1;durP1;ratioP1;P2;durP2;ratioP2
46815;SDS011;32787;53.316;8.670;2022-07-30T00:02:12;12.82;;;7.93;;
46815;SDS011;32787;53.316;8.670;2022-07-30T00:04:38;14.93;;;7.88;;
46815;SDS011;32787;53.316;8.670;2022-07-30T00:07:03;10.57;;;8.05;;
46815;SDS011;32787;53.316;8.670;2022-07-30T00:09:29;10.98;;;7.80;;
46815;SDS011;32787;53.316;8.670;2022-07-30T00:11:55;12.32;;;8.13;;
46815;SDS011;32787;53.316;8.670;2022-07-30T00:14:20;11.70;;;9.15;;
46815;SDS011;32787;53.316;8.670;2022-07-30T00:16:46;11.57;;;8.45;;
46815;SDS011;32787;53.316;8.670;2022-07-30T00:19:12;11.52;;;8.48;;
46815;SDS011;32787;53.316;8.670;2022-07-30T00:21:37;10.38;;;8.43;;
46815;SDS011;32787;53.316;8.670;2022-07-30T00:24:03;11.65;;;7.60;;
46815;SDS011;32787;53.316;8.670;2022-07-30T00:26:29;9.25;;;6.80;;
46815;SDS011;32787;53.316;8.670;2022-07-30T00:28:55;11.85;;;7.45;;
46815;SDS011;32787;53.316;8.670;2022-07-30T00:31:21;13.07;;;7.38;;
46815;SDS011;32787;53.316;8.670;2022-07-30T00:33:46;11.07;;;7.05;;
46815;SDS011;32787;53.316;8.670;2022-07-30T00:36:12;12.93;;;6.65;;
46815;SDS011;32787;53.316;8.670;2022-07-30T00:38:38;10.05;;;6.80;;
46815;SDS011;32787;53.316;8.670;2022-07-30T00:41:03;13.43;;;7.35;;
46815;SDS011;32787;53.316;8.670;2022-07-30T00:43:29;11.65;;;6.40;;
46815;SDS011;32787;53.316;8.670;2022-07-30T00:45:54;10.90;;;6.82;;
46815;SDS011;32787;53.316;8.670;2022-07-30T00:48:20;9.75;;;6.65;;
46815;SDS011;32787;53.316;8.670;2022-07-30T00:50:45;9.48;;;6.32;;
46815;SDS011;32787;53.316;8.670;2022-07-30T00:53:11;10.38;;;6.07;;
46815;SDS011;32787;53.316;8.670;2022-07-30T00:55:37;11.95;;;6.68;;
46815;SDS011;32787;53.316;8.670;2022-07-30T00:58:02;10.07;;;6.28;;
46815;SDS011;32787;53.316;8.670;2022-07-30T01:00:28;10.25;;;5.72;;
46815;SDS011;32787;53.316;8.670;2022-07-30T01:02:54;10.30;;;5.85;;
46815;SDS011;32787;53.316;8.670;2022-07-30T01:05:19;10.35;;;6.10;;
46815;SDS011;32787;53.316;8.670;2022-07-30T01:07:45;10.57;;;5.90;;
46815;SDS011;32787;53.316;8.670;2022-07-30T01:10:12;11.30;;;5.45;;
46815;SDS011;32787;53.316;8.670;2022-07-30T01:12:40;10.48;;;5.38;;
46815;SDS011;32787;53.316;8.670;2022-07-30T01:15:07;9.68;;;5.93;;
46815;SDS011;32787;53.316;8.670;2022-07-30T01:17:34;10.43;;;6.00;;
46815;SDS011;32787;53.316;8.670;2022-07-30T01:20:03;8.70;;;5.60;;
46815;SDS011;32787;53.316;8.670;2022-07-30T01:22:34;8.80;;;5.60;;
46815;SDS011;32787;53.316;8.670;2022-07-30T01:25:23;16.50;;;5.90;;
46815;SDS011;32787;53.316;8.670;2022-07-30T01:27:57;9.15;;;5.45;;
46815;SDS011;32787;53.316;8.670;2022-07-30T01:30:28;9.02;;;5.43;;
46815;SDS011;32787;53.316;8.670;2022-07-30T01:32:56;8.02;;;5.53;;
46815;SDS011;32787;53.316;8.670;2022-07-30T01:35:24;11.15;;;5.18;;
46815;SDS011;32787;53.316;8.670;2022-07-30T01:37:53;14.00;;;5.53;;
46815;SDS011;32787;53.316;8.670;2022-07-30T01:40:20;9.73;;;5.55;;
46815;SDS011;32787;53.316;8.670;2022-07-30T01:42:49;12.57;;;5.75;;
46815;SDS011;32787;53.316;8.670;2022-07-30T01:45:19;8.70;;;5.53;;
46815;SDS011;32787;53.316;8.670;2022-07-30T01:47:47;12.90;;;5.43;;
46815;SDS011;32787;53.316;8.670;2022-07-30T01:50:16;11.50;;;5.80;;
46815;SDS011;32787;53.316;8.670;2022-07-30T01:52:44;9.45;;;5.50;;
46815;SDS011;32787;53.316;8.670;2022-07-30T01:55:12;9.82;;;5.50;;
46815;SDS011;32787;53.316;8.670;2022-07-30T01:57:41;10.52;;;4.75;;
46815;SDS011;32787;53.316;8.670;2022-07-30T02:02:36;8.77;;;5.15;;
46815;SDS011;32787;53.316;8.670;2022-07-30T02:05:04;10.43;;;5.43;;
46815;SDS011;32787;53.316;8.670;2022-07-30T02:07:34;13.43;;;6.00;;
46815;SDS011;32787;53.316;8.670;2022-07-30T02:12:37;11.70;;;5.90;;
46815;SDS011;32787;53.316;8.670;2022-07-30T02:17:49;8.55;;;5.07;;
46815;SDS011;32787;53.316;8.670;2022-07-30T02:20:28;8.10;;;5.00;;
46815;SDS011;32787;53.316;8.670;2022-07-30T02:22:57;8.30;;;5.40;;
46815;SDS011;32787;53.316;8.670;2022-07-30T02:25:31;8.95;;;5.82;;
46815;SDS011;32787;53.316;8.670;2022-07-30T02:28:01;11.15;;;5.65;;
46815;SDS011;32787;53.316;8.670;2022-07-30T02:30:30;9.73;;;4.90;;
46815;SDS011;32787;53.316;8.670;2022-07-30T02:33:00;10.07;;;4.88;;
46815;SDS011;32787;53.316;8.670;2022-07-30T02:35:28;9.52;;;5.35;;
46815;SDS011;32787;53.316;8.670;2022-07-30T02:37:55;9.15;;;4.70;;
46815;SDS011;32787;53.316;8.670;2022-07-30T02:40:23;10.23;;;5.45;;
46815;SDS011;32787;53.316;8.670;2022-07-30T02:42:51;10.85;;;5.45;;
46815;SDS011;32787;53.316;8.670;2022-07-30T02:45:17;8.45;;;5.55;;
46815;SDS011;32787;53.316;8.670;2022-07-30T02:47:44;9.43;;;5.22;;
46815;SDS011;32787;53.316;8.670;2022-07-30T02:50:12;10.45;;;5.80;;
46815;SDS011;32787;53.316;8.670;2022-07-30T02:52:39;11.43;;;5.15;;
46815;SDS011;32787;53.316;8.670;2022-07-30T02:55:07;9.50;;;4.72;;
46815;SDS011;32787;53.316;8.670;2022-07-30T02:57:35;9.95;;;4.95;;
46815;SDS011;32787;53.316;8.670;2022-07-30T03:00:03;12.48;;;5.63;;
46815;SDS011;32787;53.316;8.670;2022-07-30T03:02:30;9.35;;;5.60;;
46815;SDS011;32787;53.316;8.670;2022-07-30T03:04:59;10.57;;;5.07;;
46815;SDS011;32787;53.316;8.670;2022-07-30T03:07:26;8.82;;;5.35;;
46815;SDS011;32787;53.316;8.670;2022-07-30T03:09:54;11.52;;;5.55;;
46815;SDS011;32787;53.316;8.670;2022-07-30T03:12:21;8.88;;;5.20;;
46815;SDS011;32787;53.316;8.670;2022-07-30T03:14:47;9.25;;;4.97;;
46815;SDS011;32787;53.316;8.670;2022-07-30T03:17:14;10.52;;;5.50;;
46815;SDS011;32787;53.316;8.670;2022-07-30T03:19:41;8.15;;;5.18;;
46815;SDS011;32787;53.316;8.670;2022-07-30T03:22:10;8.20;;;4.80;;
46815;SDS011;32787;53.316;8.670;2022-07-30T03:24:38;9.80;;;5.15;;
46815;SDS011;32787;53.316;8.670;2022-07-30T03:27:07;12.98;;;4.90;;
46815;SDS011;32787;53.316;8.670;2022-07-30T03:29:33;8.65;;;5.15;;
46815;SDS011;32787;53.316;8.670;2022-07-30T03:32:02;10.15;;;5.30;;
46815;SDS011;32787;53.316;8.670;2022-07-30T03:34:30;8.52;;;5.15;;
46815;SDS011;32787;53.316;8.670;2022-07-30T03:36:58;13.18;;;5.78;;
46815;SDS011;32787;53.316;8.670;2022-07-30T03:39:25;11.20;;;5.63;;
46815;SDS011;32787;53.316;8.670;2022-07-30T03:41:51;11.68;;;6.00;;
46815;SDS011;32787;53.316;8.670;2022-07-30T03:44:19;12.30;;;6.05;;
46815;SDS011;32787;53.316;8.670;2022-07-30T03:46:45;9.40;;;5.97;;
46815;SDS011;32787;53.316;8.670;2022-07-30T03:49:14;9.35;;;6.13;;
46815;SDS011;32787;53.316;8.670;2022-07-30T03:51:41;12.95;;;6.25;;
46815;SDS011;32787;53.316;8.670;2022-07-30T03:54:07;13.65;;;7.25;;
46815;SDS011;32787;53.316;8.670;2022-07-30T03:56:35;12.05;;;6.32;;
46815;SDS011;32787;53.316;8.670;2022-07-30T03:59:02;14.98;;;6.80;;
46815;SDS011;32787;53.316;8.670;2022-07-30T04:01:28;9.48;;;6.38;;
46815;SDS011;32787;53.316;8.670;2022-07-30T04:03:54;11.50;;;6.78;;
46815;SDS011;32787;53.316;8.670;2022-07-30T04:06:31;13.02;;;6.20;;
46815;SDS011;32787;53.316;8.670;2022-07-30T04:09:03;11.63;;;6.75;;
46815;SDS011;32787;53.316;8.670;2022-07-30T04:11:30;12.27;;;6.65;;
46815;SDS011;32787;53.316;8.670;2022-07-30T04:13:55;12.10;;;6.85;;
46815;SDS011;32787;53.316;8.670;2022-07-30T04:19:01;8.75;;;6.15;;
46815;SDS011;32787;53.316;8.670;2022-07-30T04:21:29;8.93;;;6.20;;
46815;SDS011;32787;53.316;8.670;2022-07-30T04:23:57;10.38;;;5.82;;
46815;SDS011;32787;53.316;8.670;2022-07-30T04:26:25;8.10;;;5.85;;
46815;SDS011;32787;53.316;8.670;2022-07-30T04:28:55;7.75;;;5.82;;
46815;SDS011;32787;53.316;8.670;2022-07-30T04:31:22;7.68;;;5.10;;
46815;SDS011;32787;53.316;8.670;2022-07-30T04:33:48;7.05;;;4.88;;
46815;SDS011;32787;53.316;8.670;2022-07-30T04:36:13;7.65;;;4.47;;
46815;SDS011;32787;53.316;8.670;2022-07-30T04:38:39;7.70;;;3.75;;
46815;SDS011;32787;53.316;8.670;2022-07-30T04:41:04;7.13;;;4.70;;
46815;SDS011;32787;53.316;8.670;2022-07-30T04:43:30;7.20;;;4.38;;
46815;SDS011;32787;53.316;8.670;2022-07-30T04:45:56;6.80;;;4.25;;
46815;SDS011;32787;53.316;8.670;2022-07-30T04:48:21;7.45;;;4.32;;
46815;SDS011;32787;53.316;8.670;2022-07-30T04:50:50;8.98;;;5.50;;
46815;SDS011;32787;53.316;8.670;2022-07-30T04:53:18;11.02;;;6.85;;
46815;SDS011;32787;53.316;8.670;2022-07-30T04:55:45;9.18;;;5.72;;
46815;SDS011;32787;53.316;8.670;2022-07-30T04:58:14;11.73;;;7.53;;
46815;SDS011;32787;53.316;8.670;2022-07-30T05:00:41;11.50;;;6.68;;
46815;SDS011;32787;53.316;8.670;2022-07-30T05:03:09;9.30;;;5.72;;
46815;SDS011;32787;53.316;8.670;2022-07-30T05:05:37;7.25;;;5.22;;
46815;SDS011;32787;53.316;8.670;2022-07-30T05:08:04;10.18;;;5.65;;
46815;SDS011;32787;53.316;8.670;2022-07-30T05:10:30;8.55;;;5.22;;
46815;SDS011;32787;53.316;8.670;2022-07-30T05:12:56;7.18;;;4.88;;
46815;SDS011;32787;53.316;8.670;2022-07-30T05:15:21;7.60;;;4.53;;
46815;SDS011;32787;53.316;8.670;2022-07-30T05:17:47;7.63;;;4.53;;
46815;SDS011;32787;53.316;8.670;2022-07-30T05:20:14;9.32;;;6.55;;
46815;SDS011;32787;53.316;8.670;2022-07-30T05:22:39;11.00;;;6.55;;
46815;SDS011;32787;53.316;8.670;2022-07-30T05:25:05;11.77;;;6.97;;
46815;SDS011;32787;53.316;8.670;2022-07-30T05:27:31;12.80;;;7.18;;
46815;SDS011;32787;53.316;8.670;2022-07-30T05:29:57;13.43;;;7.18;;
46815;SDS011;32787;53.316;8.670;2022-07-30T05:32:22;11.00;;;7.45;;
46815;SDS011;32787;53.316;8.670;2022-07-30T05:34:48;9.70;;;6.95;;
46815;SDS011;32787;53.316;8.670;2022-07-30T05:37:14;13.13;;;9.25;;
46815;SDS011;32787;53.316;8.670;2022-07-30T05:39:39;16.77;;;10.52;;
46815;SDS011;32787;53.316;8.670;2022-07-30T05:42:05;13.57;;;10.13;;
46815;SDS011;32787;53.316;8.670;2022-07-30T05:44:31;13.43;;;10.10;;
46815;SDS011;32787;53.316;8.670;2022-07-30T05:46:56;13.82;;;10.02;;
46815;SDS011;32787;53.316;8.670;2022-07-30T05:49:22;12.82;;;9.23;;
46815;SDS011;32787;53.316;8.670;2022-07-30T05:51:47;14.90;;;9.82;;
46815;SDS011;32787;53.316;8.670;2022-07-30T05:54:13;15.18;;;10.38;;
46815;SDS011;32787;53.316;8.670;2022-07-30T05:56:39;15.85;;;10.30;;
46815;SDS011;32787;53.316;8.670;2022-07-30T05:59:05;16.42;;;10.20;;
46815;SDS011;32787;53.316;8.670;2022-07-30T06:01:31;18.15;;;10.30;;
46815;SDS011;32787;53.316;8.670;2022-07-30T06:03:56;14.27;;;10.15;;
46815;SDS011;32787;53.316;8.670;2022-07-30T06:06:22;15.35;;;10.25;;
46815;SDS011;32787;53.316;8.670;2022-07-30T06:08:48;16.08;;;10.70;;
46815;SDS011;32787;53.316;8.670;2022-07-30T06:11:14;19.23;;;10.88;;
46815;SDS011;32787;53.316;8.670;2022-07-30T06:13:40;12.95;;;10.05;;
46815;SDS011;32787;53.316;8.670;2022-07-30T06:16:05;18.20;;;10.52;;
46815;SDS011;32787;53.316;8.670;2022-07-30T06:18:31;19.38;;;11.10;;
46815;SDS011;32787;53.316;8.670;2022-07-30T06:20:56;15.05;;;9.82;;
46815;SDS011;32787;53.316;8.670;2022-07-30T06:23:22;15.52;;;9.43;;
46815;SDS011;32787;53.316;8.670;2022-07-30T06:25:48;15.50;;;9.52;;
46815;SDS011;32787;53.316;8.670;2022-07-30T06:28:15;16.25;;;10.63;;
46815;SDS011;32787;53.316;8.670;2022-07-30T06:30:42;16.90;;;9.73;;
46815;SDS011;32787;53.316;8.670;2022-07-30T06:33:10;14.40;;;9.65;;
46815;SDS011;32787;53.316;8.670;2022-07-30T06:35:36;14.55;;;9.50;;
46815;SDS011;32787;53.316;8.670;2022-07-30T06:38:02;13.65;;;10.48;;
46815;SDS011;32787;53.316;8.670;2022-07-30T06:40:28;16.02;;;9.63;;
46815;SDS011;32787;53.316;8.670;2022-07-30T06:42:53;13.25;;;10.40;;
46815;SDS011;32787;53.316;8.670;2022-07-30T06:45:19;15.93;;;9.65;;
46815;SDS011;32787;53.316;8.670;2022-07-30T06:47:45;14.57;;;9.93;;
46815;SDS011;32787;53.316;8.670;2022-07-30T06:50:10;15.80;;;10.00;;
46815;SDS011;32787;53.316;8.670;2022-07-30T06:52:36;14.18;;;9.82;;
46815;SDS011;32787;53.316;8.670;2022-07-30T06:55:02;16.88;;;9.55;;
46815;SDS011;32787;53.316;8.670;2022-07-30T06:57:28;14.70;;;9.70;;
46815;SDS011;32787;53.316;8.670;2022-07-30T06:59:54;15.93;;;10.18;;
46815;SDS011;32787;53.316;8.670;2022-07-30T07:02:20;17.80;;;9.35;;
46815;SDS011;32787;53.316;8.670;2022-07-30T07:04:45;14.73;;;9.45;;
46815;SDS011;32787;53.316;8.670;2022-07-30T07:07:11;13.20;;;8.32;;
46815;SDS011;32787;53.316;8.670;2022-07-30T07:09:36;15.85;;;9.50;;
46815;SDS011;32787;53.316;8.670;2022-07-30T07:12:02;12.70;;;9.00;;
46815;SDS011;32787;53.316;8.670;2022-07-30T07:14:28;13.85;;;9.68;;
46815;SDS011;32787;53.316;8.670;2022-07-30T07:16:53;16.52;;;9.75;;
46815;SDS011;32787;53.316;8.670;2022-07-30T07:19:19;12.45;;;8.73;;
46815;SDS011;32787;53.316;8.670;2022-07-30T07:21:45;14.70;;;9.80;;
46815;SDS011;32787;53.316;8.670;2022-07-30T07:24:10;14.93;;;8.95;;
46815;SDS011;32787;53.316;8.670;2022-07-30T07:26:36;12.43;;;9.10;;
46815;SDS011;32787;53.316;8.670;2022-07-30T07:29:02;16.15;;;10.13;;
46815;SDS011;32787;53.316;8.670;2022-07-30T07:31:27;17.00;;;9.98;;
46815;SDS011;32787;53.316;8.670;2022-07-30T07:33:53;13.55;;;8.88;;
46815;SDS011;32787;53.316;8.670;2022-07-30T07:36:19;12.30;;;8.63;;
46815;SDS011;32787;53.316;8.670;2022-07-30T07:38:45;13.38;;;9.00;;
46815;SDS011;32787;53.316;8.670;2022-07-30T07:41:11;13.98;;;8.68;;
46815;SDS011;32787;53.316;8.670;2022-07-30T07:43:37;14.20;;;8.43;;
46815;SDS011;32787;53.316;8.670;2022-07-30T07:46:04;12.80;;;8.27;;
46815;SDS011;32787;53.316;8.670;2022-07-30T07:48:30;14.45;;;10.02;;
46815;SDS011;32787;53.316;8.670;2022-07-30T07:50:56;15.65;;;9.52;;
46815;SDS011;32787;53.316;8.670;2022-07-30T07:53:22;14.88;;;9.30;;
46815;SDS011;32787;53.316;8.670;2022-07-30T07:55:47;15.93;;;9.15;;
46815;SDS011;32787;53.316;8.670;2022-07-30T07:58:13;13.02;;;9.15;;
46815;SDS011;32787;53.316;8.670;2022-07-30T08:00:39;24.45;;;10.20;;
46815;SDS011;32787;53.316;8.670;2022-07-30T08:03:05;11.85;;;8.02;;
46815;SDS011;32787;53.316;8.670;2022-07-30T08:05:31;15.57;;;9.32;;
46815;SDS011;32787;53.316;8.670;2022-07-30T08:07:57;13.50;;;9.27;;
46815;SDS011;32787;53.316;8.670;2022-07-30T08:10:23;15.80;;;9.90;;
46815;SDS011;32787;53.316;8.670;2022-07-30T08:12:49;14.98;;;9.07;;
46815;SDS011;32787;53.316;8.670;2022-07-30T08:15:14;18.98;;;10.50;;
46815;SDS011;32787;53.316;8.670;2022-07-30T08:17:43;18.70;;;9.55;;
46815;SDS011;32787;53.316;8.670;2022-07-30T08:20:10;13.85;;;8.98;;
46815;SDS011;32787;53.316;8.670;2022-07-30T08:22:38;15.15;;;9.90;;
46815;SDS011;32787;53.316;8.670;2022-07-30T08:25:04;14.40;;;9.32;;
46815;SDS011;32787;53.316;8.670;2022-07-30T08:27:30;13.77;;;10.25;;
46815;SDS011;32787;53.316;8.670;2022-07-30T08:29:56;16.38;;;10.63;;
46815;SDS011;32787;53.316;8.670;2022-07-30T08:32:22;17.50;;;10.65;;
46815;SDS011;32787;53.316;8.670;2022-07-30T08:34:47;14.00;;;10.15;;
46815;SDS011;32787;53.316;8.670;2022-07-30T08:37:13;17.73;;;9.25;;
46815;SDS011;32787;53.316;8.670;2022-07-30T08:39:39;15.98;;;9.35;;
46815;SDS011;32787;53.316;8.670;2022-07-30T08:42:06;17.77;;;9.65;;
46815;SDS011;32787;53.316;8.670;2022-07-30T08:44:32;13.82;;;9.60;;
46815;SDS011;32787;53.316;8.670;2022-07-30T08:46:59;16.20;;;8.95;;
46815;SDS011;32787;53.316;8.670;2022-07-30T08:49:25;13.57;;;8.60;;
46815;SDS011;32787;53.316;8.670;2022-07-30T08:51:52;15.23;;;8.80;;
46815;SDS011;32787;53.316;8.670;2022-07-30T08:54:18;15.40;;;8.50;;
46815;SDS011;32787;53.316;8.670;2022-07-30T08:56:44;14.18;;;8.18;;
46815;SDS011;32787;53.316;8.670;2022-07-30T08:59:10;11.98;;;6.80;;
46815;SDS011;32787;53.316;8.670;2022-07-30T09:01:35;11.27;;;7.22;;
46815;SDS011;32787;53.316;8.670;2022-07-30T09:04:01;10.32;;;6.70;;
46815;SDS011;32787;53.316;8.670;2022-07-30T09:06:27;12.98;;;7.20;;
46815;SDS011;32787;53.316;8.670;2022-07-30T09:08:53;12.93;;;6.65;;
46815;SDS011;32787;53.316;8.670;2022-07-30T09:11:19;11.07;;;5.85;;
46815;SDS011;32787;53.316;8.670;2022-07-30T09:13:45;12.88;;;6.35;;
46815;SDS011;32787;53.316;8.670;2022-07-30T09:16:21;13.43;;;6.80;;
46815;SDS011;32787;53.316;8.670;2022-07-30T09:18:48;11.75;;;5.75;;
46815;SDS011;32787;53.316;8.670;2022-07-30T09:21:18;9.73;;;5.40;;
46815;SDS011;32787;53.316;8.670;2022-07-30T09:26:25;9.07;;;4.78;;
46815;SDS011;32787;53.316;8.670;2022-07-30T09:28:52;11.82;;;4.75;;
46815;SDS011;32787;53.316;8.670;2022-07-30T09:31:18;14.48;;;4.78;;
46815;SDS011;32787;53.316;8.670;2022-07-30T09:33:45;9.32;;;4.05;;
46815;SDS011;32787;53.316;8.670;2022-07-30T09:36:15;9.30;;;3.90;;
46815;SDS011;32787;53.316;8.670;2022-07-30T09:41:09;9.63;;;4.10;;
46815;SDS011;32787;53.316;8.670;2022-07-30T09:43:42;11.15;;;5.10;;
46815;SDS011;32787;53.316;8.670;2022-07-30T09:46:15;11.98;;;4.75;;
46815;SDS011;32787;53.316;8.670;2022-07-30T09:48:41;10.13;;;4.57;;
46815;SDS011;32787;53.316;8.670;2022-07-30T09:51:07;9.52;;;4.68;;
46815;SDS011;32787;53.316;8.670;2022-07-30T09:53:34;12.23;;;4.40;;
46815;SDS011;32787;53.316;8.670;2022-07-30T09:56:00;11.38;;;4.60;;
46815;SDS011;32787;53.316;8.670;2022-07-30T09:58:53;11.80;;;4.32;;
46815;SDS011;32787;53.316;8.670;2022-07-30T10:01:19;8.75;;;4.18;;
46815;SDS011;32787;53.316;8.670;2022-07-30T10:03:45;10.32;;;3.88;;
46815;SDS011;32787;53.316;8.670;2022-07-30T10:06:11;9.20;;;3.72;;
46815;SDS011;32787;53.316;8.670;2022-07-30T10:08:44;7.88;;;3.30;;
46815;SDS011;32787;53.316;8.670;2022-07-30T10:11:12;8.60;;;3.40;;
46815;SDS011;32787;53.316;8.670;2022-07-30T10:13:40;10.82;;;3.83;;
46815;SDS011;32787;53.316;8.670;2022-07-30T10:16:07;9.27;;;3.40;;
46815;SDS011;32787;53.316;8.670;2022-07-30T10:18:34;9.00;;;3.53;;
46815;SDS011;32787;53.316;8.670;2022-07-30T10:21:00;8.10;;;3.60;;
46815;SDS011;32787;53.316;8.670;2022-07-30T10:23:28;7.75;;;4.00;;
46815;SDS011;32787;53.316;8.670;2022-07-30T10:25:54;9.05;;;4.10;;
46815;SDS011;32787;53.316;8.670;2022-07-30T10:28:24;7.60;;;3.78;;
46815;SDS011;32787;53.316;8.670;2022-07-30T10:33:17;10.88;;;3.05;;
46815;SDS011;32787;53.316;8.670;2022-07-30T10:35:45;7.80;;;3.35;;
46815;SDS011;32787;53.316;8.670;2022-07-30T10:38:11;7.78;;;3.20;;
46815;SDS011;32787;53.316;8.670;2022-07-30T10:40:59;10.77;;;3.20;;
46815;SDS011;32787;53.316;8.670;2022-07-30T10:46:18;8.52;;;3.28;;
46815;SDS011;32787;53.316;8.670;2022-07-30T10:49:13;9.88;;;3.30;;
46815;SDS011;32787;53.316;8.670;2022-07-30T10:51:47;8.70;;;3.67;;
46815;SDS011;32787;53.316;8.670;2022-07-30T10:54:34;7.85;;;3.25;;
46815;SDS011;32787;53.316;8.670;2022-07-30T11:02:24;9.85;;;3.50;;
46815;SDS011;32787;53.316;8.670;2022-07-30T11:07:42;8.05;;;2.80;;
46815;SDS011;32787;53.316;8.670;2022-07-30T11:10:32;8.98;;;2.60;;
46815;SDS011;32787;53.316;8.670;2022-07-30T11:13:05;7.13;;;3.20;;
46815;SDS011;32787;53.316;8.670;2022-07-30T11:18:18;8.55;;;3.08;;
46815;SDS011;32787;53.316;8.670;2022-07-30T11:21:30;9.88;;;3.30;;
46815;SDS011;32787;53.316;8.670;2022-07-30T11:23:41;6.32;;;3.00;;
46815;SDS011;32787;53.316;8.670;2022-07-30T11:26:09;8.10;;;2.92;;
46815;SDS011;32787;53.316;8.670;2022-07-30T11:28:40;11.60;;;2.90;;
46815;SDS011;32787;53.316;8.670;2022-07-30T11:31:26;9.82;;;2.83;;
46815;SDS011;32787;53.316;8.670;2022-07-30T11:34:23;10.50;;;2.70;;
46815;SDS011;32787;53.316;8.670;2022-07-30T11:42:24;8.95;;;2.60;;
46815;SDS011;32787;53.316;8.670;2022-07-30T11:47:49;6.43;;;2.30;;
46815;SDS011;32787;53.316;8.670;2022-07-30T11:50:49;8.63;;;3.10;;
46815;SDS011;32787;53.316;8.670;2022-07-30T11:53:12;7.20;;;2.70;;
46815;SDS011;32787;53.316;8.670;2022-07-30T11:55:45;8.30;;;2.75;;
46815;SDS011;32787;53.316;8.670;2022-07-30T11:58:32;7.57;;;2.72;;
46815;SDS011;32787;53.316;8.670;2022-07-30T12:01:06;8.02;;;2.65;;
46815;SDS011;32787;53.316;8.670;2022-07-30T12:03:41;8.70;;;2.85;;
46815;SDS011;32787;53.316;8.670;2022-07-30T12:06:09;10.50;;;3.00;;
46815;SDS011;32787;53.316;8.670;2022-07-30T12:08:47;8.88;;;2.80;;
46815;SDS011;32787;53.316;8.670;2022-07-30T12:11:15;7.97;;;2.47;;
46815;SDS011;32787;53.316;8.670;2022-07-30T12:13:41;6.07;;;2.50;;
46815;SDS011;32787;53.316;8.670;2022-07-30T12:16:12;8.35;;;2.97;;
46815;SDS011;32787;53.316;8.670;2022-07-30T12:18:40;7.03;;;2.78;;
46815;SDS011;32787;53.316;8.670;2022-07-30T12:21:06;6.57;;;2.40;;
46815;SDS011;32787;53.316;8.670;2022-07-30T12:23:33;9.30;;;2.55;;
46815;SDS011;32787;53.316;8.670;2022-07-30T12:25:59;6.18;;;2.78;;
46815;SDS011;32787;53.316;8.670;2022-07-30T12:28:29;6.80;;;2.50;;
46815;SDS011;32787;53.316;8.670;2022-07-30T12:30:57;9.43;;;2.88;;
46815;SDS011;32787;53.316;8.670;2022-07-30T12:33:24;7.13;;;2.70;;
46815;SDS011;32787;53.316;8.670;2022-07-30T12:35:53;8.18;;;2.83;;
46815;SDS011;32787;53.316;8.670;2022-07-30T12:38:21;6.85;;;2.42;;
46815;SDS011;32787;53.316;8.670;2022-07-30T12:41:02;5.32;;;2.40;;
46815;SDS011;32787;53.316;8.670;2022-07-30T12:46:16;8.05;;;3.20;;
46815;SDS011;32787;53.316;8.670;2022-07-30T12:48:56;9.65;;;2.75;;
46815;SDS011;32787;53.316;8.670;2022-07-30T12:51:30;7.40;;;3.05;;
46815;SDS011;32787;53.316;8.670;2022-07-30T12:53:58;8.00;;;3.00;;
46815;SDS011;32787;53.316;8.670;2022-07-30T12:56:27;6.72;;;2.75;;
46815;SDS011;32787;53.316;8.670;2022-07-30T12:58:54;6.80;;;2.90;;
46815;SDS011;32787;53.316;8.670;2022-07-30T13:01:40;10.27;;;3.08;;
46815;SDS011;32787;53.316;8.670;2022-07-30T13:04:07;7.00;;;2.75;;
46815;SDS011;32787;53.316;8.670;2022-07-30T13:06:34;6.57;;;2.88;;
46815;SDS011;32787;53.316;8.670;2022-07-30T13:09:00;6.40;;;2.70;;
46815;SDS011;32787;53.316;8.670;2022-07-30T13:11:35;6.53;;;2.88;;
46815;SDS011;32787;53.316;8.670;2022-07-30T13:14:06;7.03;;;2.65;;
46815;SDS011;32787;53.316;8.670;2022-07-30T13:16:34;8.82;;;2.70;;
46815;SDS011;32787;53.316;8.670;2022-07-30T13:19:06;7.32;;;2.67;;
46815;SDS011;32787;53.316;8.670;2022-07-30T13:21:35;8.15;;;3.03;;
46815;SDS011;32787;53.316;8.670;2022-07-30T13:24:01;9.77;;;3.10;;
46815;SDS011;32787;53.316;8.670;2022-07-30T13:26:28;9.70;;;2.78;;
46815;SDS011;32787;53.316;8.670;2022-07-30T13:28:54;6.15;;;2.85;;
46815;SDS011;32787;53.316;8.670;2022-07-30T13:31:23;7.05;;;2.88;;
46815;SDS011;32787;53.316;8.670;2022-07-30T13:33:49;6.15;;;2.67;;
46815;SDS011;32787;53.316;8.670;2022-07-30T13:36:15;6.35;;;2.90;;
46815;SDS011;32787;53.316;8.670;2022-07-30T13:38:42;8.55;;;2.80;;
46815;SDS011;32787;53.316;8.670;2022-07-30T13:41:08;6.22;;;2.45;;
46815;SDS011;32787;53.316;8.670;2022-07-30T13:43:33;5.97;;;2.50;;
46815;SDS011;32787;53.316;8.670;2022-07-30T13:46:00;7.00;;;2.60;;
46815;SDS011;32787;53.316;8.670;2022-07-30T13:50:55;6.53;;;2.97;;
46815;SDS011;32787;53.316;8.670;2022-07-30T13:53:21;5.78;;;2.13;;
46815;SDS011;32787;53.316;8.670;2022-07-30T13:55:47;6.97;;;2.85;;
46815;SDS011;32787;53.316;8.670;2022-07-30T13:58:12;6.18;;;2.22;;
46815;SDS011;32787;53.316;8.670;2022-07-30T14:00:38;7.63;;;2.30;;
46815;SDS011;32787;53.316;8.670;2022-07-30T14:03:06;6.30;;;2.45;;
46815;SDS011;32787;53.316;8.670;2022-07-30T14:05:33;7.78;;;2.55;;
46815;SDS011;32787;53.316;8.670;2022-07-30T14:08:00;7.53;;;2.25;;
46815;SDS011;32787;53.316;8.670;2022-07-30T14:10:27;5.80;;;2.47;;
46815;SDS011;32787;53.316;8.670;2022-07-30T14:12:53;8.75;;;2.50;;
46815;SDS011;32787;53.316;8.670;2022-07-30T14:15:23;7.53;;;2.70;;
46815;SDS011;32787;53.316;8.670;2022-07-30T14:17:50;8.02;;;2.72;;
46815;SDS011;32787;53.316;8.670;2022-07-30T14:20:17;5.47;;;2.40;;
46815;SDS011;32787;53.316;8.670;2022-07-30T14:22:43;9.10;;;2.30;;
46815;SDS011;32787;53.316;8.670;2022-07-30T14:25:09;7.28;;;2.60;;
46815;SDS011;32787;53.316;8.670;2022-07-30T14:27:35;7.75;;;2.65;;
46815;SDS011;32787;53.316;8.670;2022-07-30T14:30:02;5.93;;;2.40;;
46815;SDS011;32787;53.316;8.670;2022-07-30T14:32:29;6.25;;;2.50;;
46815;SDS011;32787;53.316;8.670;2022-07-30T14:34:55;5.53;;;2.40;;
46815;SDS011;32787;53.316;8.670;2022-07-30T14:37:21;6.85;;;2.50;;
46815;SDS011;32787;53.316;8.670;2022-07-30T14:39:46;7.90;;;2.72;;
46815;SDS011;32787;53.316;8.670;2022-07-30T14:42:12;7.78;;;2.63;;
46815;SDS011;32787;53.316;8.670;2022-07-30T14:44:37;9.45;;;2.72;;
46815;SDS011;32787;53.316;8.670;2022-07-30T14:47:03;6.15;;;2.08;;
46815;SDS011;32787;53.316;8.670;2022-07-30T14:49:29;7.57;;;2.55;;
46815;SDS011;32787;53.316;8.670;2022-07-30T14:51:54;5.82;;;2.47;;
46815;SDS011;32787;53.316;8.670;2022-07-30T14:54:20;7.07;;;2.60;;
46815;SDS011;32787;53.316;8.670;2022-07-30T14:56:46;9.70;;;2.25;;
46815;SDS011;32787;53.316;8.670;2022-07-30T14:59:12;7.65;;;2.40;;
46815;SDS011;32787;53.316;8.670;2022-07-30T15:01:38;4.35;;;1.92;;
46815;SDS011;32787;53.316;8.670;2022-07-30T15:04:05;7.35;;;2.13;;
46815;SDS011;32787;53.316;8.670;2022-07-30T15:06:33;5.45;;;2.60;;
46815;SDS011;32787;53.316;8.670;2022-07-30T15:08:59;4.82;;;1.95;;
46815;SDS011;32787;53.316;8.670;2022-07-30T15:11:25;7.30;;;2.40;;
46815;SDS011;32787;53.316;8.670;2022-07-30T15:13:51;12.90;;;2.45;;
46815;SDS011;32787;53.316;8.670;2022-07-30T15:16:17;5.78;;;2.28;;
46815;SDS011;32787;53.316;8.670;2022-07-30T15:18:43;5.90;;;2.10;;
46815;SDS011;32787;53.316;8.670;2022-07-30T15:21:09;6.78;;;2.38;;
46815;SDS011;32787;53.316;8.670;2022-07-30T15:23:36;6.25;;;2.17;;
46815;SDS011;32787;53.316;8.670;2022-07-30T15:26:02;5.78;;;2.30;;
46815;SDS011;32787;53.316;8.670;2022-07-30T15:28:28;5.75;;;2.20;;
46815;SDS011;32787;53.316;8.670;2022-07-30T15:30:54;10.57;;;3.33;;